Time;durP1;ratioP1;P1;durP2;ratioP2;P2;SDS_P1;SDS_P2;PMS_P1;PMS_P2;Temp;Humidity;BMP_temperature;BMP_pressure;BME280_temperature;BME280_humidity;BME280_pressure;Samples;Min_cycle;Max_cycle;Signal;HPM_P1;HPM_P2
2021/11/24 00:01:34;;;;;;;;;27.25;27.25;;;;;;;;5029867;28;11515;-80
2021/11/24 00:04:01;;;;;;;;;28.75;26.25;;;;;;;;5030726;28;11586;-80
2021/11/24 00:06:29;;;;;;;;;22.00;21.50;;;;;;;;5026390;28;11585;-79
2021/11/24 00:08:56;;;;;;;;;23.50;21.00;;;;;;;;5019176;28;11579;-79
2021/11/24 00:11:25;;;;;;;;;28.50;24.50;;;;;;;;5027707;28;11561;-80
2021/11/24 00:13:52;;;;;;;;;28.25;24.00;;;;;;;;5030747;28;11678;-79
2021/11/24 00:16:19;;;;;;;;;33.00;29.00;;;;;;;;5015261;28;12728;-79
2021/11/24 00:18:47;;;;;;;;;27.00;26.75;;;;;;;;5027630;28;11673;-79
2021/11/24 00:21:14;;;;;;;;;27.25;26.00;;;;;;;;5010581;28;11558;-79
2021/11/24 00:23:41;;;;;;;;;16.75;16.00;;;;;;;;5035390;28;11604;-79
2021/11/24 00:26:09;;;;;;;;;29.50;22.00;;;;;;;;5006455;28;11571;-79
2021/11/24 00:28:38;;;;;;;;;28.25;24.50;;;;;;;;5031112;28;11576;-79
2021/11/24 00:31:06;;;;;;;;;29.00;24.25;;;;;;;;5030623;28;11501;-80
2021/11/24 00:33:34;;;;;;;;;27.25;26.75;;;;;;;;5026413;28;11678;-80
2021/11/24 00:36:01;;;;;;;;;27.00;24.00;;;;;;;;5033489;28;11604;-80
2021/11/24 00:38:28;;;;;;;;;25.25;23.50;;;;;;;;5035217;28;11707;-80
2021/11/24 00:40:56;;;;;;;;;25.00;21.00;;;;;;;;5031045;28;11711;-80
2021/11/24 00:43:24;;;;;;;;;26.50;20.25;;;;;;;;5027524;28;11574;-80
2021/11/24 00:45:53;;;;;;;;;23.00;20.75;;;;;;;;5036931;28;11671;-80
2021/11/24 00:48:20;;;;;;;;;27.75;23.25;;;;;;;;5028982;28;12317;-79
2021/11/24 00:50:48;;;;;;;;;22.25;18.00;;;;;;;;5033236;28;11551;-79
2021/11/24 00:53:15;;;;;;;;;18.25;18.25;;;;;;;;5014630;28;11718;-79
2021/11/24 00:55:43;;;;;;;;;20.00;19.00;;;;;;;;5031485;28;11563;-80
2021/11/24 00:58:10;;;;;;;;;16.50;16.50;;;;;;;;5033702;28;11561;-79
2021/11/24 01:00:37;;;;;;;;;18.50;14.00;;;;;;;;5022955;28;11521;-80
2021/11/24 01:03:06;;;;;;;;;23.25;13.75;;;;;;;;5025529;28;11769;-79
2021/11/24 01:05:34;;;;;;;;;17.25;17.00;;;;;;;;5026201;28;11680;-80
2021/11/24 01:08:01;;;;;;;;;18.00;15.50;;;;;;;;5039229;28;11543;-80
2021/11/24 01:10:29;;;;;;;;;15.75;13.75;;;;;;;;5020277;28;12438;-80
2021/11/24 01:12:57;;;;;;;;;17.50;16.25;;;;;;;;5038671;28;11562;-79
2021/11/24 01:15:24;;;;;;;;;15.00;14.00;;;;;;;;5009732;28;11695;-79
2021/11/24 01:17:52;;;;;;;;;16.75;16.50;;;;;;;;5026769;28;11588;-79
2021/11/24 01:20:21;;;;;;;;;18.50;17.25;;;;;;;;5040313;28;11573;-79
2021/11/24 01:22:48;;;;;;;;;14.50;12.50;;;;;;;;5026637;28;12342;-79
2021/11/24 01:25:16;;;;;;;;;17.75;16.25;;;;;;;;5036104;28;11539;-79
2021/11/24 01:27:45;;;;;;;;;16.50;15.75;;;;;;;;5029469;28;11818;-79
2021/11/24 01:30:13;;;;;;;;;22.75;22.25;;;;;;;;5024257;28;11593;-80
2021/11/24 01:32:41;;;;;;;;;26.25;23.25;;;;;;;;5022267;28;11707;-79
2021/11/24 01:35:09;;;;;;;;;16.00;14.75;;;;;;;;5024964;28;11705;-80
2021/11/24 01:37:38;;;;;;;;;12.75;10.00;;;;;;;;5026697;28;11552;-79
2021/11/24 01:40:07;;;;;;;;;20.00;20.00;;;;;;;;5023039;28;11525;-79
2021/11/24 01:42:35;;;;;;;;;20.25;20.25;;;;;;;;5025731;28;11593;-79
2021/11/24 01:45:02;;;;;;;;;22.00;20.00;;;;;;;;5025233;28;11591;-80
2021/11/24 01:47:30;;;;;;;;;25.25;20.00;;;;;;;;5025702;28;11559;-79
2021/11/24 01:49:58;;;;;;;;;24.00;16.25;;;;;;;;5009654;28;11652;-80
2021/11/24 01:52:25;;;;;;;;;24.75;20.75;;;;;;;;5010247;28;11565;-79
2021/11/24 01:54:54;;;;;;;;;15.00;15.00;;;;;;;;5037646;28;11566;-78
2021/11/24 01:57:23;;;;;;;;;20.50;14.50;;;;;;;;5025829;28;11682;-80
2021/11/24 01:59:51;;;;;;;;;27.00;23.00;;;;;;;;5026094;28;11582;-82
2021/11/24 02:02:18;;;;;;;;;22.75;19.25;;;;;;;;5007187;28;11579;-82
2021/11/24 02:04:46;;;;;;;;;23.50;21.75;;;;;;;;5025462;28;11588;-82
2021/11/24 02:07:14;;;;;;;;;27.25;26.00;;;;;;;;5023757;28;11573;-81
2021/11/24 02:09:43;;;;;;;;;26.25;20.25;;;;;;;;5024738;28;11672;-81
2021/11/24 02:12:13;;;;;;;;;25.25;24.75;;;;;;;;5025346;28;11623;-82
2021/11/24 02:14:40;;;;;;;;;24.50;24.25;;;;;;;;5026723;28;11551;-82
2021/11/24 02:17:08;;;;;;;;;22.50;20.25;;;;;;;;5024659;28;11718;-82
2021/11/24 02:19:36;;;;;;;;;26.50;24.25;;;;;;;;5027183;28;11665;-82
2021/11/24 02:22:05;;;;;;;;;35.50;27.25;;;;;;;;5022216;28;11628;-84
2021/11/24 02:24:34;;;;;;;;;23.00;23.00;;;;;;;;5033422;28;11587;-82
2021/11/24 02:27:04;;;;;;;;;25.00;22.75;;;;;;;;5026401;28;11655;-80
2021/11/24 02:29:32;;;;;;;;;36.25;31.00;;;;;;;;5026052;28;11632;-80
2021/11/24 02:32:00;;;;;;;;;29.00;23.00;;;;;;;;5023881;28;11647;-82
2021/11/24 02:34:29;;;;;;;;;34.75;31.25;;;;;;;;5026564;28;12362;-81
2021/11/24 02:36:56;;;;;;;;;28.00;27.00;;;;;;;;5033779;28;11643;-80
2021/11/24 02:39:26;;;;;;;;;30.25;28.50;;;;;;;;5027555;28;11563;-81
2021/11/24 02:41:53;;;;;;;;;31.75;27.50;;;;;;;;5035724;28;11629;-81
2021/11/24 02:44:23;;;;;;;;;27.25;27.25;;;;;;;;5025132;28;11679;-79
2021/11/24 02:46:52;;;;;;;;;31.25;29.00;;;;;;;;5000273;28;11542;-80
2021/11/24 02:49:19;;;;;;;;;24.00;24.00;;;;;;;;5030009;28;11544;-79
2021/11/24 02:51:47;;;;;;;;;23.00;17.25;;;;;;;;5022117;28;11581;-80
2021/11/24 02:54:15;;;;;;;;;26.50;20.75;;;;;;;;5024189;28;11571;-80
2021/11/24 02:56:45;;;;;;;;;28.00;28.00;;;;;;;;5019884;28;11642;-80
2021/11/24 02:59:12;;;;;;;;;23.25;18.75;;;;;;;;5013509;28;11569;-80
2021/11/24 03:01:40;;;;;;;;;21.50;19.75;;;;;;;;5028481;28;11649;-81
2021/11/24 03:04:09;;;;;;;;;18.75;15.50;;;;;;;;5023962;28;11750;-80
2021/11/24 03:06:37;;;;;;;;;27.25;23.00;;;;;;;;5024737;28;11759;-81
2021/11/24 03:09:04;;;;;;;;;26.75;23.25;;;;;;;;5034987;28;12377;-80
2021/11/24 03:11:32;;;;;;;;;21.25;17.00;;;;;;;;5035596;28;11649;-79
2021/11/24 03:14:01;;;;;;;;;24.00;23.25;;;;;;;;5005327;28;11737;-80
2021/11/24 03:16:28;;;;;;;;;23.75;19.50;;;;;;;;5002422;28;11663;-80
2021/11/24 03:18:56;;;;;;;;;20.25;19.50;;;;;;;;5023977;28;11624;-80
2021/11/24 03:21:23;;;;;;;;;19.00;19.00;;;;;;;;5025455;28;11722;-81
2021/11/24 03:23:50;;;;;;;;;20.50;20.50;;;;;;;;5031073;28;11729;-79
2021/11/24 03:26:17;;;;;;;;;20.00;18.75;;;;;;;;5030623;28;12444;-81
2021/11/24 03:28:45;;;;;;;;;19.50;18.75;;;;;;;;5029279;28;11500;-80
2021/11/24 03:31:13;;;;;;;;;18.50;18.25;;;;;;;;5033582;28;11523;-80
2021/11/24 03:33:40;;;;;;;;;22.25;16.75;;;;;;;;5026099;28;11667;-80
2021/11/24 03:36:08;;;;;;;;;25.00;22.50;;;;;;;;5027299;28;11628;-79
2021/11/24 03:38:35;;;;;;;;;16.25;15.00;;;;;;;;5028790;28;11559;-79
2021/11/24 03:41:04;;;;;;;;;18.25;18.25;;;;;;;;5028544;28;11604;-80
2021/11/24 03:43:31;;;;;;;;;24.75;22.50;;;;;;;;5029738;28;11549;-80
2021/11/24 03:45:58;;;;;;;;;17.75;15.75;;;;;;;;4990906;28;11497;-81
2021/11/24 03:48:27;;;;;;;;;21.75;16.50;;;;;;;;5025245;28;11567;-80
2021/11/24 03:50:55;;;;;;;;;19.50;15.00;;;;;;;;5028655;28;11653;-80
2021/11/24 03:53:22;;;;;;;;;17.75;13.00;;;;;;;;5034181;28;11669;-80
2021/11/24 03:55:50;;;;;;;;;15.25;15.00;;;;;;;;5024173;28;12004;-81
2021/11/24 03:58:17;;;;;;;;;23.25;22.00;;;;;;;;5029533;28;11742;-81
2021/11/24 04:00:44;;;;;;;;;21.50;17.50;;;;;;;;5018139;28;12404;-81
2021/11/24 04:03:12;;;;;;;;;15.75;15.75;;;;;;;;5033523;28;11590;-81
2021/11/24 04:05:41;;;;;;;;;24.00;24.00;;;;;;;;5031161;28;11713;-82
2021/11/24 04:08:08;;;;;;;;;21.00;19.00;;;;;;;;5027439;28;11728;-81
2021/11/24 04:10:35;;;;;;;;;33.25;28.00;;;;;;;;5031067;28;11563;-81
2021/11/24 04:13:02;;;;;;;;;22.75;21.00;;;;;;;;5035686;28;11690;-81
2021/11/24 04:15:30;;;;;;;;;18.33;17.33;;;;;;;;5033038;28;12448;-80
2021/11/24 04:17:57;;;;;;;;;28.25;19.25;;;;;;;;5033041;28;11587;-80
2021/11/24 04:20:25;;;;;;;;;28.33;23.00;;;;;;;;5015085;28;12451;-80
2021/11/24 04:22:53;;;;;;;;;25.00;23.33;;;;;;;;5023256;28;12409;-80
2021/11/24 04:25:21;;;;;;;;;22.50;19.50;;;;;;;;5028312;28;11681;-80
2021/11/24 04:27:48;;;;;;;;;26.33;23.33;;;;;;;;5023623;28;11667;-80
2021/11/24 04:30:17;;;;;;;;;22.50;19.25;;;;;;;;5036636;28;11568;-80
2021/11/24 04:32:44;;;;;;;;;28.67;26.00;;;;;;;;5033785;28;11610;-80
2021/11/24 04:35:12;;;;;;;;;27.33;22.00;;;;;;;;5018958;28;11565;-80
2021/11/24 04:37:39;;;;;;;;;22.50;18.25;;;;;;;;5009332;28;11569;-81
2021/11/24 04:40:10;;;;;;;;;24.67;18.67;;;;;;;;5013304;28;11690;-81
2021/11/24 04:42:38;;;;;;;;;15.00;15.00;;;;;;;;5023520;28;11554;-81
2021/11/24 04:45:06;;;;;;;;;25.00;21.33;;;;;;;;5019144;28;11569;-81
2021/11/24 04:47:34;;;;;;;;;10.33;8.67;;;;;;;;5008236;28;11527;-80
2021/11/24 04:50:02;;;;;;;;;40.00;33.00;;;;;;;;5028850;28;11477;-81
2021/11/24 04:52:29;;;;;;;;;40.67;34.33;;;;;;;;5030655;28;11792;-83
2021/11/24 04:54:56;;;;;;;;;29.67;25.00;;;;;;;;5033379;28;11591;-81
2021/11/24 04:57:25;;;;;;;;;34.00;33.67;;;;;;;;5015993;28;8917;-81
2021/11/24 04:59:59;;;;;;;;;32.00;27.33;;;;;;;;5027636;28;11594;-80
2021/11/24 05:02:28;;;;;;;;;36.00;29.33;;;;;;;;4992283;28;11575;-82
2021/11/24 05:04:55;;;;;;;;;33.25;28.75;;;;;;;;5011885;28;11565;-81
2021/11/24 05:10:30;;;;;;;;;33.50;29.50;;;;;;;;5025246;28;11667;-82
2021/11/24 05:13:05;;;;;;;;;34.00;26.75;;;;;;;;5027377;28;11547;-82
2021/11/24 05:15:35;;;;;;;;;42.00;32.75;;;;;;;;5026745;28;11622;-78
2021/11/24 05:18:05;;;;;;;;;34.25;31.75;;;;;;;;5036127;28;11685;-79
2021/11/24 05:20:33;;;;;;;;;31.00;27.25;;;;;;;;5022192;28;11639;-79
2021/11/24 05:23:04;;;;;;;;;38.50;34.00;;;;;;;;5028456;28;11574;-79
2021/11/24 05:25:33;;;;;;;;;38.50;32.75;;;;;;;;5012382;28;11593;-80
2021/11/24 05:28:02;;;;;;;;;32.75;28.50;;;;;;;;5028534;28;11686;-79
2021/11/24 05:30:31;;;;;;;;;39.50;30.75;;;;;;;;5004554;28;11486;-78
2021/11/24 05:32:59;;;;;;;;;22.00;21.50;;;;;;;;5019470;28;11582;-78
2021/11/24 05:35:30;;;;;;;;;25.50;22.75;;;;;;;;5019153;28;11585;-79
2021/11/24 05:37:59;;;;;;;;;39.75;30.25;;;;;;;;5023999;28;11537;-78
2021/11/24 05:40:26;;;;;;;;;31.75;25.25;;;;;;;;5022237;28;11593;-80
2021/11/24 05:43:22;;;;;;;;;32.00;32.00;;;;;;;;5025907;28;11544;-80
2021/11/24 05:46:10;;;;;;;;;22.00;17.25;;;;;;;;5020887;28;11549;-79
2021/11/24 05:48:38;;;;;;;;;38.25;32.50;;;;;;;;5025453;28;11600;-79
2021/11/24 05:51:06;;;;;;;;;45.75;41.00;;;;;;;;5023524;28;11569;-78
2021/11/24 05:53:33;;;;;;;;;29.25;25.00;;;;;;;;5022718;28;11676;-79
2021/11/24 05:56:02;;;;;;;;;40.25;27.25;;;;;;;;5019211;28;11634;-79
2021/11/24 05:58:29;;;;;;;;;46.25;29.25;;;;;;;;5025344;28;12345;-79
2021/11/24 06:00:58;;;;;;;;;32.00;24.50;;;;;;;;5020805;28;11689;-79
2021/11/24 06:03:25;;;;;;;;;26.00;24.50;;;;;;;;5023376;28;11544;-79
2021/11/24 06:05:53;;;;;;;;;22.75;18.00;;;;;;;;5021568;28;12397;-79
2021/11/24 06:08:20;;;;;;;;;28.50;23.50;;;;;;;;5028076;28;11656;-79
2021/11/24 06:10:49;;;;;;;;;46.75;41.00;;;;;;;;5026002;28;11504;-82
2021/11/24 06:13:16;;;;;;;;;33.25;28.00;;;;;;;;4993348;28;11686;-80
2021/11/24 06:15:44;;;;;;;;;33.75;27.75;;;;;;;;5018413;28;11584;-80
2021/11/24 06:18:13;;;;;;;;;32.25;23.50;;;;;;;;5004395;28;13138;-80
2021/11/24 06:20:40;;;;;;;;;24.00;22.00;;;;;;;;5023402;28;11609;-79
2021/11/24 06:23:08;;;;;;;;;34.75;32.00;;;;;;;;5023708;28;11560;-82
2021/11/24 06:25:36;;;;;;;;;27.25;25.75;;;;;;;;5023336;28;12406;-77
2021/11/24 06:28:04;;;;;;;;;25.00;24.00;;;;;;;;5003865;28;11691;-80
2021/11/24 06:30:32;;;;;;;;;31.00;25.50;;;;;;;;5003248;28;11534;-82
2021/11/24 06:32:59;;;;;;;;;28.50;22.75;;;;;;;;5023910;28;12224;-81
2021/11/24 06:35:28;;;;;;;;;35.25;30.50;;;;;;;;5018177;28;11606;-81
2021/11/24 06:37:56;;;;;;;;;32.75;21.75;;;;;;;;5023065;28;11561;-80
2021/11/24 06:40:23;;;;;;;;;27.25;27.25;;;;;;;;5023253;28;11723;-81
2021/11/24 06:42:51;;;;;;;;;27.50;26.25;;;;;;;;5022997;28;11583;-80
2021/11/24 06:45:18;;;;;;;;;29.50;27.00;;;;;;;;5004765;28;11595;-79
2021/11/24 06:47:46;;;;;;;;;36.50;34.25;;;;;;;;5022190;28;11582;-82
2021/11/24 06:50:14;;;;;;;;;34.25;26.50;;;;;;;;5010893;28;11562;-80
2021/11/24 06:52:43;;;;;;;;;32.25;28.00;;;;;;;;5025257;28;11561;-82
2021/11/24 06:55:11;;;;;;;;;39.00;30.50;;;;;;;;5028786;28;12434;-82
2021/11/24 06:57:40;;;;;;;;;35.50;28.25;;;;;;;;5034358;28;11586;-82
2021/11/24 07:00:08;;;;;;;;;29.00;26.75;;;;;;;;5013440;28;11578;-81
2021/11/24 07:02:36;;;;;;;;;30.25;24.00;;;;;;;;5025513;28;11586;-81
2021/11/24 07:05:03;;;;;;;;;28.75;23.75;;;;;;;;5022156;28;11712;-81
2021/11/24 07:07:31;;;;;;;;;31.00;23.50;;;;;;;;5029831;28;11661;-82
2021/11/24 07:09:59;;;;;;;;;29.50;26.00;;;;;;;;5035820;28;11711;-81
2021/11/24 07:12:27;;;;;;;;;23.75;23.75;;;;;;;;5039757;28;11586;-82
2021/11/24 07:14:56;;;;;;;;;28.50;27.25;;;;;;;;5032255;28;12603;-82
2021/11/24 07:17:23;;;;;;;;;27.50;26.25;;;;;;;;5028417;28;11583;-85
2021/11/24 07:19:51;;;;;;;;;27.75;20.75;;;;;;;;5025974;28;11540;-82
2021/11/24 07:22:18;;;;;;;;;20.75;20.75;;;;;;;;5014432;28;11612;-82
2021/11/24 07:24:46;;;;;;;;;19.75;17.00;;;;;;;;5045971;28;11576;-82
2021/11/24 07:27:15;;;;;;;;;24.00;19.50;;;;;;;;5025304;28;11585;-82
2021/11/24 07:29:42;;;;;;;;;26.00;21.00;;;;;;;;5025558;28;11551;-83
2021/11/24 07:32:10;;;;;;;;;32.25;30.00;;;;;;;;5030142;28;11542;-80
2021/11/24 07:34:38;;;;;;;;;41.50;38.75;;;;;;;;5028513;28;11587;-81
2021/11/24 07:37:05;;;;;;;;;25.50;22.25;;;;;;;;5031537;28;11590;-82
2021/11/24 07:39:33;;;;;;;;;31.00;25.75;;;;;;;;5037980;28;11677;-81
2021/11/24 07:42:00;;;;;;;;;25.50;23.25;;;;;;;;5038795;28;11544;-79
2021/11/24 07:44:29;;;;;;;;;42.25;33.75;;;;;;;;5044627;28;12412;-83
2021/11/24 07:46:56;;;;;;;;;19.75;19.75;;;;;;;;5032082;28;13089;-82
2021/11/24 07:49:24;;;;;;;;;30.75;22.25;;;;;;;;5031901;28;11604;-82
2021/11/24 07:51:51;;;;;;;;;25.25;23.75;;;;;;;;5025848;28;11553;-78
2021/11/24 07:54:18;;;;;;;;;31.25;25.50;;;;;;;;5028917;28;11557;-78
2021/11/24 07:56:45;;;;;;;;;26.00;23.75;;;;;;;;5023924;28;11528;-80
2021/11/24 07:59:13;;;;;;;;;32.75;30.50;;;;;;;;5030068;28;11629;-76
2021/11/24 08:01:41;;;;;;;;;23.25;22.50;;;;;;;;5031559;28;11531;-75
2021/11/24 08:04:09;;;;;;;;;29.00;24.50;;;;;;;;5027834;28;11649;-75
2021/11/24 08:06:36;;;;;;;;;26.25;23.00;;;;;;;;5035877;28;11604;-75
2021/11/24 08:09:04;;;;;;;;;25.00;23.00;;;;;;;;5028491;28;11575;-75
2021/11/24 08:11:31;;;;;;;;;30.25;25.25;;;;;;;;5024269;28;11675;-74
2021/11/24 08:13:59;;;;;;;;;24.25;21.00;;;;;;;;5030713;28;11588;-75
2021/11/24 08:16:26;;;;;;;;;31.25;22.25;;;;;;;;5028410;28;11706;-75
2021/11/24 08:18:55;;;;;;;;;23.75;15.25;;;;;;;;5026377;28;11109;-76
2021/11/24 08:21:22;;;;;;;;;18.75;17.00;;;;;;;;5030258;28;11604;-75
2021/11/24 08:23:50;;;;;;;;;30.25;24.00;;;;;;;;5027810;28;11495;-84
2021/11/24 08:26:18;;;;;;;;;29.25;22.25;;;;;;;;5023039;28;12303;-80
2021/11/24 08:28:46;;;;;;;;;23.00;19.00;;;;;;;;5006939;28;11561;-77
2021/11/24 08:31:13;;;;;;;;;31.75;26.50;;;;;;;;5026610;28;11558;-79
2021/11/24 08:33:40;;;;;;;;;26.75;22.50;;;;;;;;5025309;28;11613;-79
2021/11/24 08:36:11;;;;;;;;;30.75;24.75;;;;;;;;5032067;28;11584;-78
2021/11/24 08:38:39;;;;;;;;;27.50;22.50;;;;;;;;5033233;28;11555;-80
2021/11/24 08:41:06;;;;;;;;;23.50;19.75;;;;;;;;5024919;28;11498;-78
2021/11/24 08:43:33;;;;;;;;;22.25;17.50;;;;;;;;5032546;28;12435;-78
2021/11/24 08:46:01;;;;;;;;;22.50;16.75;;;;;;;;5009574;28;11551;-76
2021/11/24 08:48:28;;;;;;;;;19.25;19.25;;;;;;;;5032981;28;11521;-76
2021/11/24 08:50:55;;;;;;;;;30.50;28.25;;;;;;;;5025575;28;11686;-76
2021/11/24 08:53:25;;;;;;;;;37.00;30.50;;;;;;;;5028919;28;11683;-77
2021/11/24 08:55:53;;;;;;;;;42.00;38.50;;;;;;;;5025214;28;11583;-77
2021/11/24 08:58:20;;;;;;;;;20.00;18.00;;;;;;;;5028733;28;11619;-77
2021/11/24 09:00:48;;;;;;;;;17.25;15.25;;;;;;;;5004557;28;11501;-77
2021/11/24 09:03:15;;;;;;;;;18.00;18.00;;;;;;;;5011092;28;11556;-77
2021/11/24 09:05:43;;;;;;;;;80.00;63.00;;;;;;;;5028742;28;11596;-77
2021/11/24 09:08:10;;;;;;;;;144.25;130.50;;;;;;;;5045167;28;11590;-77
2021/11/24 09:10:39;;;;;;;;;91.67;70.67;;;;;;;;5032004;28;8867;-77
2021/11/24 09:13:06;;;;;;;;;59.25;45.75;;;;;;;;5027808;28;8874;-78
2021/11/24 09:15:34;;;;;;;;;19.25;19.25;;;;;;;;5026169;28;11605;-78
2021/11/24 09:18:01;;;;;;;;;29.75;25.50;;;;;;;;5027036;28;11692;-77
2021/11/24 09:20:29;;;;;;;;;271.50;251.75;;;;;;;;5033188;28;11641;-77
2021/11/24 09:22:57;;;;;;;;;62.67;53.67;;;;;;;;5031515;28;8866;-78
2021/11/24 09:25:35;;;;;;;;;123.25;115.50;;;;;;;;5043786;28;11706;-77
2021/11/24 09:28:09;;;;;;;;;84.33;69.00;;;;;;;;5035508;28;8946;-78
2021/11/24 09:30:38;;;;;;;;;28.00;25.50;;;;;;;;5030602;28;8872;-78
2021/11/24 09:33:05;;;;;;;;;41.25;38.75;;;;;;;;5021542;28;11613;-78
2021/11/24 09:35:32;;;;;;;;;33.00;27.75;;;;;;;;5022380;28;11571;-78
2021/11/24 09:38:01;;;;;;;;;22.50;20.50;;;;;;;;5021283;28;11597;-78
2021/11/24 09:40:29;;;;;;;;;27.75;27.75;;;;;;;;5004130;28;11712;-77
2021/11/24 09:43:01;;;;;;;;;39.25;32.00;;;;;;;;5018391;28;11679;-78
2021/11/24 09:45:31;;;;;;;;;24.75;22.00;;;;;;;;5039158;28;11590;-78
2021/11/24 09:48:01;;;;;;;;;30.00;24.25;;;;;;;;5031985;28;11581;-78
2021/11/24 09:50:30;;;;;;;;;35.25;27.25;;;;;;;;5025785;28;11582;-78
2021/11/24 09:52:59;;;;;;;;;30.75;19.25;;;;;;;;5020148;28;11569;-78
2021/11/24 09:55:28;;;;;;;;;38.25;26.75;;;;;;;;5024216;28;11555;-78
2021/11/24 09:57:57;;;;;;;;;71.50;58.25;;;;;;;;5028086;28;11595;-78
2021/11/24 10:00:26;;;;;;;;;72.75;57.25;;;;;;;;5026489;28;11593;-77
2021/11/24 10:02:57;;;;;;;;;48.00;41.75;;;;;;;;5027894;28;11601;-77
2021/11/24 10:05:25;;;;;;;;;35.75;28.00;;;;;;;;5022480;28;12415;-78
2021/11/24 10:07:52;;;;;;;;;32.75;28.75;;;;;;;;5019887;28;11596;-76
2021/11/24 10:10:20;;;;;;;;;73.00;57.50;;;;;;;;5000885;28;11586;-77
2021/11/24 10:12:47;;;;;;;;;37.25;27.00;;;;;;;;5021596;28;11603;-77
2021/11/24 10:15:42;;;;;;;;;60.00;44.75;;;;;;;;5003323;28;11592;-77
2021/11/24 10:18:22;;;;;;;;;47.50;41.50;;;;;;;;5023224;28;11611;-77
2021/11/24 10:20:53;;;;;;;;;47.50;42.25;;;;;;;;5026922;28;11596;-76
2021/11/24 10:23:23;;;;;;;;;54.50;46.75;;;;;;;;5034815;28;11567;-77
2021/11/24 10:25:51;;;;;;;;;47.00;43.00;;;;;;;;5006605;28;11595;-77
2021/11/24 10:28:29;;;;;;;;;52.50;46.25;;;;;;;;5029861;28;11586;-75
2021/11/24 10:30:57;;;;;;;;;52.75;41.00;;;;;;;;5018952;28;11519;-76
2021/11/24 10:33:29;;;;;;;;;49.25;42.00;;;;;;;;5026361;28;11556;-75
2021/11/24 10:36:12;;;;;;;;;52.75;42.50;;;;;;;;5032648;28;12414;-76
2021/11/24 10:38:43;;;;;;;;;55.75;44.00;;;;;;;;5027841;28;12498;-76
2021/11/24 10:41:12;;;;;;;;;72.25;58.25;;;;;;;;5032531;28;11671;-77
2021/11/24 10:43:44;;;;;;;;;55.75;45.50;;;;;;;;5008214;28;11981;-76
2021/11/24 10:46:13;;;;;;;;;48.25;41.25;;;;;;;;5023722;28;11642;-76
2021/11/24 10:48:43;;;;;;;;;41.25;33.50;;;;;;;;5023174;28;11654;-77
2021/11/24 10:51:28;;;;;;;;;52.75;41.25;;;;;;;;5017720;28;11527;-76
2021/11/24 10:54:15;;;;;;;;;39.00;37.00;;;;;;;;5026100;28;11529;-77
2021/11/24 10:57:10;;;;;;;;;37.50;37.50;;;;;;;;5019444;28;11480;-77
2021/11/24 10:59:39;;;;;;;;;43.25;37.00;;;;;;;;4982408;28;12442;-77
2021/11/24 11:02:23;;;;;;;;;36.50;34.25;;;;;;;;5020124;28;12129;-78
2021/11/24 11:05:07;;;;;;;;;43.75;37.00;;;;;;;;5030858;28;11242;-77
2021/11/24 11:07:37;;;;;;;;;35.25;34.00;;;;;;;;5033076;28;11034;-77
2021/11/24 11:10:23;;;;;;;;;29.50;28.00;;;;;;;;5038531;28;10831;-77
2021/11/24 11:12:53;;;;;;;;;46.75;37.50;;;;;;;;5030188;28;11528;-77
2021/11/24 11:15:24;;;;;;;;;35.00;32.00;;;;;;;;5028275;28;10929;-77
2021/11/24 11:17:54;;;;;;;;;37.75;35.25;;;;;;;;5029314;28;10557;-77
2021/11/24 11:20:24;;;;;;;;;70.50;56.50;;;;;;;;5027193;28;10668;-77
2021/11/24 11:23:07;;;;;;;;;36.50;34.25;;;;;;;;5027062;28;11505;-77
2021/11/24 11:25:36;;;;;;;;;27.75;26.00;;;;;;;;5030859;28;10451;-77
2021/11/24 11:28:04;;;;;;;;;43.25;35.75;;;;;;;;5028971;28;10012;-76
2021/11/24 11:30:32;;;;;;;;;31.75;26.00;;;;;;;;5030389;28;10236;-78
2021/11/24 11:33:00;;;;;;;;;30.25;28.50;;;;;;;;5028667;28;9962;-78
2021/11/24 11:35:30;;;;;;;;;24.50;19.25;;;;;;;;5046256;28;9806;-78
2021/11/24 11:37:58;;;;;;;;;21.00;18.75;;;;;;;;5028144;28;9620;-78
2021/11/24 11:40:27;;;;;;;;;20.67;17.67;;;;;;;;5032258;28;9566;-78
2021/11/24 11:43:00;;;;;;;;;17.67;17.00;;;;;;;;5019487;28;9507;-78
2021/11/24 11:45:30;;;;;;;;;21.67;18.33;;;;;;;;5031874;28;9274;-78
2021/11/24 11:48:00;;;;;;;;;17.67;17.67;;;;;;;;5028539;28;9178;-79
2021/11/24 11:50:53;;;;;;;;;16.67;16.67;;;;;;;;4998409;28;9267;-77
2021/11/24 11:53:23;;;;;;;;;15.00;13.00;;;;;;;;5022825;28;9345;-79
2021/11/24 11:56:17;;;;;;;;;16.00;15.67;;;;;;;;5014472;28;9034;-76
2021/11/24 11:58:54;;;;;;;;;13.00;8.50;;;;;;;;5008540;28;9211;-79
2021/11/24 12:01:24;;;;;;;;;12.50;11.00;;;;;;;;5010311;28;8825;-80
2021/11/24 12:04:00;;;;;;;;;10.25;9.25;;;;;;;;5015501;28;8888;-78
2021/11/24 12:06:32;;;;;;;;;12.25;12.25;;;;;;;;5028986;28;8879;-77
2021/11/24 12:09:23;;;;;;;;;19.75;14.25;;;;;;;;5025841;28;8868;-78
2021/11/24 12:12:10;;;;;;;;;4.75;4.00;;;;;;;;5036306;28;8877;-78
2021/11/24 12:14:50;;;;;;;;;10.00;8.25;;;;;;;;5025236;28;8879;-78
2021/11/24 12:17:41;;;;;;;;;10.00;9.00;;;;;;;;5033594;28;8864;-78
2021/11/24 12:20:43;;;;;;;;;8.00;7.50;;;;;;;;5024712;28;8928;-79
2021/11/24 12:23:25;;;;;;;;;7.67;6.33;;;;;;;;5023897;28;8848;-79
2021/11/24 12:25:55;;;;;;;;;7.67;7.67;;;;;;;;5015785;28;8986;-79
2021/11/24 12:28:24;;;;;;;;;9.00;9.00;;;;;;;;5028629;28;9820;-79
2021/11/24 12:31:01;;;;;;;;;9.67;8.00;;;;;;;;5030910;28;8898;-79
2021/11/24 12:33:30;;;;;;;;;10.00;8.33;;;;;;;;5041035;28;9205;-79
2021/11/24 12:36:00;;;;;;;;;6.00;4.33;;;;;;;;5030677;28;9103;-79
2021/11/24 12:38:30;;;;;;;;;8.00;8.00;;;;;;;;5036635;28;9229;-78
2021/11/24 12:40:59;;;;;;;;;8.00;8.00;;;;;;;;5034876;28;10384;-79
2021/11/24 12:43:28;;;;;;;;;2.25;2.25;;;;;;;;5029456;28;9022;-78
2021/11/24 12:46:08;;;;;;;;;8.33;6.67;;;;;;;;5041762;28;8953;-78
2021/11/24 12:48:39;;;;;;;;;6.50;5.00;;;;;;;;5028224;28;8949;-78
2021/11/24 12:51:07;;;;;;;;;7.67;7.67;;;;;;;;5039150;28;8878;-78
2021/11/24 12:53:37;;;;;;;;;9.00;4.33;;;;;;;;5039214;28;8990;-78
2021/11/24 12:56:07;;;;;;;;;4.67;4.00;;;;;;;;5029504;28;9062;-77
2021/11/24 12:58:34;;;;;;;;;5.33;4.00;;;;;;;;5022361;28;8969;-78
2021/11/24 13:01:16;;;;;;;;;9.67;6.00;;;;;;;;5035896;28;8976;-78
2021/11/24 13:03:43;;;;;;;;;4.00;4.00;;;;;;;;5029746;28;9208;-77
2021/11/24 13:06:12;;;;;;;;;3.00;3.00;;;;;;;;5022028;28;9731;-78
2021/11/24 13:08:42;;;;;;;;;3.00;3.00;;;;;;;;5026414;28;9370;-77
2021/11/24 13:11:11;;;;;;;;;7.00;7.00;;;;;;;;5036050;28;9418;-76
2021/11/24 13:13:39;;;;;;;;;7.50;7.50;;;;;;;;5000418;28;9565;-77
2021/11/24 13:16:20;;;;;;;;;3.50;3.50;;;;;;;;5030352;28;9552;-77
2021/11/24 13:18:51;;;;;;;;;3.00;3.00;;;;;;;;5026732;28;9743;-78
2021/11/24 13:21:21;;;;;;;;;8.00;6.75;;;;;;;;5040009;28;9786;-77
2021/11/24 13:24:03;;;;;;;;;7.75;7.75;;;;;;;;5021101;28;9903;-77
2021/11/24 13:26:30;;;;;;;;;16.25;14.75;;;;;;;;5030657;28;10201;-77
2021/11/24 13:28:58;;;;;;;;;19.00;18.50;;;;;;;;5037440;28;10383;-78
2021/11/24 13:31:26;;;;;;;;;16.75;16.25;;;;;;;;5011433;28;10459;-77
2021/11/24 13:33:54;;;;;;;;;17.00;15.75;;;;;;;;5025960;28;10372;-77
2021/11/24 13:36:23;;;;;;;;;11.75;11.50;;;;;;;;5042206;28;11271;-77
2021/11/24 13:38:55;;;;;;;;;9.00;9.00;;;;;;;;5030933;28;10284;-77
2021/11/24 13:41:23;;;;;;;;;10.00;8.00;;;;;;;;5025510;28;10316;-77
2021/11/24 13:43:53;;;;;;;;;8.00;6.00;;;;;;;;5038770;28;10138;-77
2021/11/24 13:46:24;;;;;;;;;7.25;4.00;;;;;;;;5041346;28;9746;-77
2021/11/24 13:49:03;;;;;;;;;8.00;8.00;;;;;;;;5021705;28;9494;-77
2021/11/24 13:51:31;;;;;;;;;16.67;10.67;;;;;;;;5026347;28;9431;-78
2021/11/24 13:54:06;;;;;;;;;9.00;9.00;;;;;;;;5030267;28;9525;-80
2021/11/24 13:56:35;;;;;;;;;12.00;12.00;;;;;;;;5028239;28;9280;-78
2021/11/24 13:59:06;;;;;;;;;12.67;11.67;;;;;;;;5031676;28;9194;-78
2021/11/24 14:01:35;;;;;;;;;13.67;10.67;;;;;;;;5012931;28;9148;-78
2021/11/24 14:04:06;;;;;;;;;12.67;12.67;;;;;;;;5019638;28;9272;-78
2021/11/24 14:06:45;;;;;;;;;15.00;13.67;;;;;;;;5025362;28;9258;-78
2021/11/24 14:09:25;;;;;;;;;12.67;12.33;;;;;;;;5028665;28;9339;-77
2021/11/24 14:11:56;;;;;;;;;16.00;15.75;;;;;;;;5016213;28;9468;-78
2021/11/24 14:14:23;;;;;;;;;9.00;9.00;;;;;;;;5017809;28;9671;-78
2021/11/24 14:16:55;;;;;;;;;15.75;15.75;;;;;;;;5018648;28;9594;-76
2021/11/24 14:19:22;;;;;;;;;12.25;12.25;;;;;;;;5013053;28;10472;-78
2021/11/24 14:21:56;;;;;;;;;13.50;11.75;;;;;;;;5013483;28;9731;-81
2021/11/24 14:24:26;;;;;;;;;12.25;12.25;;;;;;;;5020916;28;10847;-81
2021/11/24 14:26:55;;;;;;;;;14.75;14.75;;;;;;;;5013045;28;10108;-76
2021/11/24 14:29:24;;;;;;;;;16.25;16.25;;;;;;;;5024267;28;10528;-79
2021/11/24 14:31:58;;;;;;;;;21.75;20.00;;;;;;;;5010218;28;10945;-79
2021/11/24 14:34:26;;;;;;;;;18.50;18.50;;;;;;;;5016428;28;11067;-79
2021/11/24 14:36:55;;;;;;;;;12.50;12.50;;;;;;;;5020401;28;11638;-79
2021/11/24 14:39:24;;;;;;;;;23.75;20.00;;;;;;;;5016921;28;10597;-78